sensor_id;sensor_type;location;lat;lon;timestamp;temperature;humidity
16060;DHT22;8134;49.552;7.632;2023-08-30T00:01:12;16.30;99.90
16060;DHT22;8134;49.552;7.632;2023-08-30T00:03:37;16.30;99.90
16060;DHT22;8134;49.552;7.632;2023-08-30T00:06:03;16.30;99.90
16060;DHT22;8134;49.552;7.632;2023-08-30T00:08:29;16.20;99.90
16060;DHT22;8134;49.552;7.632;2023-08-30T00:10:55;16.20;99.90
16060;DHT22;8134;49.552;7.632;2023-08-30T00:13:24;16.20;99.90
16060;DHT22;8134;49.552;7.632;2023-08-30T00:15:50;16.30;99.90
16060;DHT22;8134;49.552;7.632;2023-08-30T00:18:15;16.20;99.90
16060;DHT22;8134;49.552;7.632;2023-08-30T00:20:41;16.30;99.90
16060;DHT22;8134;49.552;7.632;2023-08-30T00:23:06;16.20;99.90
16060;DHT22;8134;49.552;7.632;2023-08-30T00:25:32;16.30;99.90
16060;DHT22;8134;49.552;7.632;2023-08-30T00:27:57;16.20;99.90
16060;DHT22;8134;49.552;7.632;2023-08-30T00:30:23;16.30;99.90
16060;DHT22;8134;49.552;7.632;2023-08-30T00:32:48;16.30;99.90
16060;DHT22;8134;49.552;7.632;2023-08-30T00:35:14;16.20;99.90
16060;DHT22;8134;49.552;7.632;2023-08-30T00:37:39;16.20;99.90
16060;DHT22;8134;49.552;7.632;2023-08-30T00:40:05;16.20;99.90
16060;DHT22;8134;49.552;7.632;2023-08-30T00:42:31;16.20;99.90
16060;DHT22;8134;49.552;7.632;2023-08-30T00:44:57;16.20;99.90
16060;DHT22;8134;49.552;7.632;2023-08-30T00:47:23;16.20;99.90
16060;DHT22;8134;49.552;7.632;2023-08-30T00:49:48;16.20;99.90
16060;DHT22;8134;49.552;7.632;2023-08-30T00:52:14;16.20;99.90
16060;DHT22;8134;49.552;7.632;2023-08-30T00:54:40;16.20;99.90
16060;DHT22;8134;49.552;7.632;2023-08-30T00:57:06;16.20;99.90
16060;DHT22;8134;49.552;7.632;2023-08-30T00:59:32;16.20;99.90
16060;DHT22;8134;49.552;7.632;2023-08-30T01:01:57;16.20;99.90
16060;DHT22;8134;49.552;7.632;2023-08-30T01:04:24;16.20;99.90
16060;DHT22;8134;49.552;7.632;2023-08-30T01:06:50;16.20;99.90
16060;DHT22;8134;49.552;7.632;2023-08-30T01:09:15;16.20;99.90
16060;DHT22;8134;49.552;7.632;2023-08-30T01:12:02;16.10;99.90
16060;DHT22;8134;49.552;7.632;2023-08-30T01:17:16;16.10;99.90
16060;DHT22;8134;49.552;7.632;2023-08-30T01:19:46;16.10;99.90
16060;DHT22;8134;49.552;7.632;2023-08-30T01:24:44;16.10;99.90
16060;DHT22;8134;49.552;7.632;2023-08-30T01:27:11;16.10;99.90
16060;DHT22;8134;49.552;7.632;2023-08-30T01:29:37;16.10;99.90
16060;DHT22;8134;49.552;7.632;2023-08-30T01:32:03;16.10;99.90
16060;DHT22;8134;49.552;7.632;2023-08-30T01:34:29;16.10;99.90
16060;DHT22;8134;49.552;7.632;2023-08-30T01:36:55;16.10;99.90
16060;DHT22;8134;49.552;7.632;2023-08-30T01:39:21;16.10;99.90
16060;DHT22;8134;49.552;7.632;2023-08-30T01:41:47;16.10;99.90
16060;DHT22;8134;49.552;7.632;2023-08-30T01:44:13;16.20;99.90
16060;DHT22;8134;49.552;7.632;2023-08-30T01:46:42;16.10;99.90
16060;DHT22;8134;49.552;7.632;2023-08-30T01:49:08;16.00;99.90
16060;DHT22;8134;49.552;7.632;2023-08-30T01:51:34;16.00;99.90
16060;DHT22;8134;49.552;7.632;2023-08-30T01:54:00;16.00;99.90
16060;DHT22;8134;49.552;7.632;2023-08-30T01:56:26;16.00;99.90
16060;DHT22;8134;49.552;7.632;2023-08-30T01:58:51;16.00;99.90
16060;DHT22;8134;49.552;7.632;2023-08-30T02:01:17;16.00;99.90
16060;DHT22;8134;49.552;7.632;2023-08-30T02:03:45;16.00;99.90
16060;DHT22;8134;49.552;7.632;2023-08-30T02:06:18;16.00;99.90
16060;DHT22;8134;49.552;7.632;2023-08-30T02:08:50;16.00;99.90
16060;DHT22;8134;49.552;7.632;2023-08-30T02:11:19;16.00;99.90
16060;DHT22;8134;49.552;7.632;2023-08-30T02:13:46;15.90;99.90
16060;DHT22;8134;49.552;7.632;2023-08-30T02:16:13;15.80;99.90
16060;DHT22;8134;49.552;7.632;2023-08-30T02:18:38;15.80;99.90
16060;DHT22;8134;49.552;7.632;2023-08-30T02:21:05;15.80;99.90
16060;DHT22;8134;49.552;7.632;2023-08-30T02:23:30;15.80;99.90
16060;DHT22;8134;49.552;7.632;2023-08-30T02:25:56;15.80;99.90
16060;DHT22;8134;49.552;7.632;2023-08-30T02:28:21;15.60;99.90
16060;DHT22;8134;49.552;7.632;2023-08-30T02:30:47;15.60;99.90
16060;DHT22;8134;49.552;7.632;2023-08-30T02:33:13;15.60;99.90
16060;DHT22;8134;49.552;7.632;2023-08-30T02:35:39;15.50;99.90
16060;DHT22;8134;49.552;7.632;2023-08-30T02:38:04;15.50;99.90
16060;DHT22;8134;49.552;7.632;2023-08-30T02:40:30;15.40;99.90
16060;DHT22;8134;49.552;7.632;2023-08-30T02:42:56;15.40;99.90
16060;DHT22;8134;49.552;7.632;2023-08-30T02:45:22;15.40;99.90
16060;DHT22;8134;49.552;7.632;2023-08-30T02:47:47;15.40;99.90
16060;DHT22;8134;49.552;7.632;2023-08-30T02:50:13;15.30;99.90
16060;DHT22;8134;49.552;7.632;2023-08-30T02:52:38;15.30;99.90
16060;DHT22;8134;49.552;7.632;2023-08-30T02:55:04;15.30;99.90
16060;DHT22;8134;49.552;7.632;2023-08-30T02:57:30;15.20;99.90
16060;DHT22;8134;49.552;7.632;2023-08-30T02:59:55;15.20;99.90
16060;DHT22;8134;49.552;7.632;2023-08-30T03:02:21;15.10;99.90
16060;DHT22;8134;49.552;7.632;2023-08-30T03:04:46;15.10;99.90
16060;DHT22;8134;49.552;7.632;2023-08-30T03:07:12;15.10;99.90
16060;DHT22;8134;49.552;7.632;2023-08-30T03:09:37;15.10;99.90
16060;DHT22;8134;49.552;7.632;2023-08-30T03:12:04;15.10;99.90
16060;DHT22;8134;49.552;7.632;2023-08-30T03:14:29;15.10;99.90
16060;DHT22;8134;49.552;7.632;2023-08-30T03:16:55;15.00;99.90
16060;DHT22;8134;49.552;7.632;2023-08-30T03:19:20;15.00;99.90
16060;DHT22;8134;49.552;7.632;2023-08-30T03:21:46;14.90;99.90
16060;DHT22;8134;49.552;7.632;2023-08-30T03:24:11;14.90;99.90
16060;DHT22;8134;49.552;7.632;2023-08-30T03:26:39;14.80;99.90
16060;DHT22;8134;49.552;7.632;2023-08-30T03:29:06;14.80;99.90
16060;DHT22;8134;49.552;7.632;2023-08-30T03:31:31;14.80;99.90
16060;DHT22;8134;49.552;7.632;2023-08-30T03:33:57;14.90;99.90
16060;DHT22;8134;49.552;7.632;2023-08-30T03:36:22;14.90;99.90
16060;DHT22;8134;49.552;7.632;2023-08-30T03:38:48;14.90;99.90
16060;DHT22;8134;49.552;7.632;2023-08-30T03:41:14;14.90;99.90
16060;DHT22;8134;49.552;7.632;2023-08-30T03:43:39;14.90;99.90
16060;DHT22;8134;49.552;7.632;2023-08-30T03:46:05;14.90;99.90
16060;DHT22;8134;49.552;7.632;2023-08-30T03:48:31;14.90;99.90
16060;DHT22;8134;49.552;7.632;2023-08-30T03:50:57;14.90;99.90
16060;DHT22;8134;49.552;7.632;2023-08-30T03:53:22;14.90;99.90
16060;DHT22;8134;49.552;7.632;2023-08-30T03:55:48;14.90;99.90
16060;DHT22;8134;49.552;7.632;2023-08-30T03:58:14;14.80;99.90
16060;DHT22;8134;49.552;7.632;2023-08-30T04:00:39;14.80;99.90
16060;DHT22;8134;49.552;7.632;2023-08-30T04:03:08;14.90;99.90
16060;DHT22;8134;49.552;7.632;2023-08-30T04:05:34;14.80;99.90
16060;DHT22;8134;49.552;7.632;2023-08-30T04:08:03;14.80;99.90
16060;DHT22;8134;49.552;7.632;2023-08-30T04:10:29;14.70;99.90
16060;DHT22;8134;49.552;7.632;2023-08-30T04:12:54;14.70;99.90
16060;DHT22;8134;49.552;7.632;2023-08-30T04:15:22;14.70;99.90
16060;DHT22;8134;49.552;7.632;2023-08-30T04:17:48;14.60;99.90
16060;DHT22;8134;49.552;7.632;2023-08-30T04:20:13;14.60;99.90
16060;DHT22;8134;49.552;7.632;2023-08-30T04:22:39;14.60;99.90
16060;DHT22;8134;49.552;7.632;2023-08-30T04:25:05;14.60;99.90
16060;DHT22;8134;49.552;7.632;2023-08-30T04:27:30;14.50;99.90
16060;DHT22;8134;49.552;7.632;2023-08-30T04:29:56;14.60;99.90
16060;DHT22;8134;49.552;7.632;2023-08-30T04:32:21;14.60;99.90
16060;DHT22;8134;49.552;7.632;2023-08-30T04:34:47;14.60;99.90
16060;DHT22;8134;49.552;7.632;2023-08-30T04:37:12;14.70;99.90
16060;DHT22;8134;49.552;7.632;2023-08-30T04:39:39;14.60;99.90
16060;DHT22;8134;49.552;7.632;2023-08-30T04:42:05;14.70;99.90
16060;DHT22;8134;49.552;7.632;2023-08-30T04:44:31;14.70;99.90
16060;DHT22;8134;49.552;7.632;2023-08-30T04:46:57;14.70;99.90
16060;DHT22;8134;49.552;7.632;2023-08-30T04:49:23;14.70;99.90
16060;DHT22;8134;49.552;7.632;2023-08-30T04:51:50;14.70;99.90
16060;DHT22;8134;49.552;7.632;2023-08-30T04:54:16;14.70;99.90
16060;DHT22;8134;49.552;7.632;2023-08-30T04:56:41;14.80;99.90
16060;DHT22;8134;49.552;7.632;2023-08-30T04:59:07;14.90;99.90
16060;DHT22;8134;49.552;7.632;2023-08-30T05:01:32;14.80;99.90
16060;DHT22;8134;49.552;7.632;2023-08-30T05:03:58;15.00;99.90
16060;DHT22;8134;49.552;7.632;2023-08-30T05:06:24;14.90;99.90
16060;DHT22;8134;49.552;7.632;2023-08-30T05:08:49;14.90;99.90
16060;DHT22;8134;49.552;7.632;2023-08-30T05:11:14;15.00;99.90
16060;DHT22;8134;49.552;7.632;2023-08-30T05:13:41;15.00;99.90
16060;DHT22;8134;49.552;7.632;2023-08-30T05:16:06;15.00;99.90
16060;DHT22;8134;49.552;7.632;2023-08-30T05:18:32;15.10;99.90
16060;DHT22;8134;49.552;7.632;2023-08-30T05:20:57;15.10;99.90
16060;DHT22;8134;49.552;7.632;2023-08-30T05:23:23;15.00;99.90
16060;DHT22;8134;49.552;7.632;2023-08-30T05:25:48;15.10;99.90
16060;DHT22;8134;49.552;7.632;2023-08-30T05:28:14;15.10;99.90
16060;DHT22;8134;49.552;7.632;2023-08-30T05:30:41;15.20;99.90
16060;DHT22;8134;49.552;7.632;2023-08-30T05:33:07;15.20;99.90
16060;DHT22;8134;49.552;7.632;2023-08-30T05:35:33;15.20;99.90
16060;DHT22;8134;49.552;7.632;2023-08-30T05:37:59;15.30;99.90
16060;DHT22;8134;49.552;7.632;2023-08-30T05:40:24;15.30;99.90
16060;DHT22;8134;49.552;7.632;2023-08-30T05:42:50;15.40;99.90
16060;DHT22;8134;49.552;7.632;2023-08-30T05:45:15;15.40;99.90
16060;DHT22;8134;49.552;7.632;2023-08-30T05:47:41;15.50;99.90
16060;DHT22;8134;49.552;7.632;2023-08-30T05:50:07;15.50;99.90
16060;DHT22;8134;49.552;7.632;2023-08-30T05:52:32;15.60;99.90
16060;DHT22;8134;49.552;7.632;2023-08-30T05:54:58;15.60;99.90
16060;DHT22;8134;49.552;7.632;2023-08-30T05:57:24;15.60;99.90
16060;DHT22;8134;49.552;7.632;2023-08-30T05:59:50;15.60;99.90
16060;DHT22;8134;49.552;7.632;2023-08-30T06:02:16;15.60;99.90
16060;DHT22;8134;49.552;7.632;2023-08-30T06:04:41;15.60;99.90
16060;DHT22;8134;49.552;7.632;2023-08-30T06:07:07;15.60;99.90
16060;DHT22;8134;49.552;7.632;2023-08-30T06:09:33;15.60;99.90
16060;DHT22;8134;49.552;7.632;2023-08-30T06:11:58;15.70;99.90
16060;DHT22;8134;49.552;7.632;2023-08-30T06:14:24;15.70;99.90
16060;DHT22;8134;49.552;7.632;2023-08-30T06:16:52;15.80;99.90
16060;DHT22;8134;49.552;7.632;2023-08-30T06:19:17;15.80;99.90
16060;DHT22;8134;49.552;7.632;2023-08-30T06:21:43;15.80;99.90
16060;DHT22;8134;49.552;7.632;2023-08-30T06:24:09;15.70;99.90
16060;DHT22;8134;49.552;7.632;2023-08-30T06:26:34;15.70;99.90
16060;DHT22;8134;49.552;7.632;2023-08-30T06:28:59;15.70;99.90
16060;DHT22;8134;49.552;7.632;2023-08-30T06:31:25;15.70;99.90
16060;DHT22;8134;49.552;7.632;2023-08-30T06:33:51;15.70;99.90
16060;DHT22;8134;49.552;7.632;2023-08-30T06:36:17;15.80;99.90
16060;DHT22;8134;49.552;7.632;2023-08-30T06:38:43;15.80;99.90
16060;DHT22;8134;49.552;7.632;2023-08-30T06:41:09;15.90;99.90
16060;DHT22;8134;49.552;7.632;2023-08-30T06:43:34;15.90;99.90
16060;DHT22;8134;49.552;7.632;2023-08-30T06:46:00;15.90;99.90
16060;DHT22;8134;49.552;7.632;2023-08-30T06:48:25;16.00;99.90
16060;DHT22;8134;49.552;7.632;2023-08-30T06:50:51;16.00;99.90
16060;DHT22;8134;49.552;7.632;2023-08-30T06:53:16;16.10;99.90
16060;DHT22;8134;49.552;7.632;2023-08-30T06:55:42;16.10;99.90
16060;DHT22;8134;49.552;7.632;2023-08-30T06:58:07;16.10;99.90
16060;DHT22;8134;49.552;7.632;2023-08-30T07:00:33;16.10;99.90
16060;DHT22;8134;49.552;7.632;2023-08-30T07:02:58;16.20;99.90
16060;DHT22;8134;49.552;7.632;2023-08-30T07:05:24;16.20;99.90
16060;DHT22;8134;49.552;7.632;2023-08-30T07:07:49;16.30;99.90
16060;DHT22;8134;49.552;7.632;2023-08-30T07:10:15;16.30;99.90
16060;DHT22;8134;49.552;7.632;2023-08-30T07:12:40;16.30;99.90
16060;DHT22;8134;49.552;7.632;2023-08-30T07:15:06;16.30;99.90
16060;DHT22;8134;49.552;7.632;2023-08-30T07:17:32;16.40;99.90
16060;DHT22;8134;49.552;7.632;2023-08-30T07:19:57;16.40;99.90
16060;DHT22;8134;49.552;7.632;2023-08-30T07:22:23;16.50;99.90
16060;DHT22;8134;49.552;7.632;2023-08-30T07:24:48;16.50;99.90
16060;DHT22;8134;49.552;7.632;2023-08-30T07:27:14;16.50;99.90
16060;DHT22;8134;49.552;7.632;2023-08-30T07:29:39;16.50;99.90
16060;DHT22;8134;49.552;7.632;2023-08-30T07:32:06;16.40;99.90
16060;DHT22;8134;49.552;7.632;2023-08-30T07:34:32;16.50;99.90
16060;DHT22;8134;49.552;7.632;2023-08-30T07:36:57;16.40;99.90
16060;DHT22;8134;49.552;7.632;2023-08-30T07:39:23;16.50;99.90
16060;DHT22;8134;49.552;7.632;2023-08-30T07:41:48;16.50;99.90
16060;DHT22;8134;49.552;7.632;2023-08-30T07:44:14;16.50;99.90
16060;DHT22;8134;49.552;7.632;2023-08-30T07:46:39;16.50;99.90
16060;DHT22;8134;49.552;7.632;2023-08-30T07:49:05;16.50;99.90
16060;DHT22;8134;49.552;7.632;2023-08-30T07:51:30;16.50;99.90
16060;DHT22;8134;49.552;7.632;2023-08-30T07:53:56;16.50;99.90
16060;DHT22;8134;49.552;7.632;2023-08-30T07:56:21;16.70;99.90
16060;DHT22;8134;49.552;7.632;2023-08-30T07:58:47;16.50;99.90
16060;DHT22;8134;49.552;7.632;2023-08-30T08:01:12;16.60;99.90
16060;DHT22;8134;49.552;7.632;2023-08-30T08:03:38;16.60;99.90
16060;DHT22;8134;49.552;7.632;2023-08-30T08:06:06;16.60;99.90
16060;DHT22;8134;49.552;7.632;2023-08-30T08:08:32;16.60;99.90
16060;DHT22;8134;49.552;7.632;2023-08-30T08:11:00;16.60;99.90
16060;DHT22;8134;49.552;7.632;2023-08-30T08:13:26;16.60;99.90
16060;DHT22;8134;49.552;7.632;2023-08-30T08:15:51;16.50;99.90
16060;DHT22;8134;49.552;7.632;2023-08-30T08:18:17;16.70;99.90
16060;DHT22;8134;49.552;7.632;2023-08-30T08:20:42;16.70;99.90
16060;DHT22;8134;49.552;7.632;2023-08-30T08:23:08;16.60;99.90
16060;DHT22;8134;49.552;7.632;2023-08-30T08:25:34;16.70;99.90
16060;DHT22;8134;49.552;7.632;2023-08-30T08:27:59;16.70;99.90
16060;DHT22;8134;49.552;7.632;2023-08-30T08:30:25;16.80;99.90
16060;DHT22;8134;49.552;7.632;2023-08-30T08:32:51;16.80;99.90
16060;DHT22;8134;49.552;7.632;2023-08-30T08:35:16;16.90;99.90
16060;DHT22;8134;49.552;7.632;2023-08-30T08:37:42;17.00;99.90
16060;DHT22;8134;49.552;7.632;2023-08-30T08:40:07;17.00;99.90
16060;DHT22;8134;49.552;7.632;2023-08-30T08:42:36;17.00;99.90
16060;DHT22;8134;49.552;7.632;2023-08-30T08:45:02;17.00;99.90
16060;DHT22;8134;49.552;7.632;2023-08-30T08:47:29;17.00;99.90
16060;DHT22;8134;49.552;7.632;2023-08-30T08:49:55;17.00;99.90
16060;DHT22;8134;49.552;7.632;2023-08-30T08:52:20;17.00;99.90
16060;DHT22;8134;49.552;7.632;2023-08-30T08:54:46;17.00;99.90
16060;DHT22;8134;49.552;7.632;2023-08-30T08:57:12;17.10;99.90
16060;DHT22;8134;49.552;7.632;2023-08-30T08:59:37;17.10;99.90
16060;DHT22;8134;49.552;7.632;2023-08-30T09:02:03;17.20;99.90
16060;DHT22;8134;49.552;7.632;2023-08-30T09:04:30;17.10;99.90
16060;DHT22;8134;49.552;7.632;2023-08-30T09:07:01;17.00;99.90
16060;DHT22;8134;49.552;7.632;2023-08-30T09:09:27;17.00;99.90
16060;DHT22;8134;49.552;7.632;2023-08-30T09:11:53;17.10;99.90
16060;DHT22;8134;49.552;7.632;2023-08-30T09:14:19;17.10;99.90
16060;DHT22;8134;49.552;7.632;2023-08-30T09:16:54;17.20;99.90
16060;DHT22;8134;49.552;7.632;2023-08-30T09:19:20;17.20;99.90
16060;DHT22;8134;49.552;7.632;2023-08-30T09:21:52;17.30;99.90
16060;DHT22;8134;49.552;7.632;2023-08-30T09:24:18;17.30;99.90
16060;DHT22;8134;49.552;7.632;2023-08-30T09:26:46;17.40;99.90
16060;DHT22;8134;49.552;7.632;2023-08-30T09:29:12;17.40;99.90
16060;DHT22;8134;49.552;7.632;2023-08-30T09:31:38;17.40;99.90
16060;DHT22;8134;49.552;7.632;2023-08-30T09:34:05;17.40;99.90
16060;DHT22;8134;49.552;7.632;2023-08-30T09:36:38;17.50;99.90
16060;DHT22;8134;49.552;7.632;2023-08-30T09:39:05;17.60;99.90
16060;DHT22;8134;49.552;7.632;2023-08-30T09:49:45;17.80;99.90
16060;DHT22;8134;49.552;7.632;2023-08-30T09:52:19;17.80;99.90
16060;DHT22;8134;49.552;7.632;2023-08-30T09:54:48;17.80;99.90
16060;DHT22;8134;49.552;7.632;2023-08-30T09:57:13;17.90;99.90
16060;DHT22;8134;49.552;7.632;2023-08-30T09:59:40;18.00;99.90
16060;DHT22;8134;49.552;7.632;2023-08-30T10:02:05;18.00;99.90
16060;DHT22;8134;49.552;7.632;2023-08-30T10:04:38;18.00;99.90
16060;DHT22;8134;49.552;7.632;2023-08-30T10:07:05;18.10;99.90
16060;DHT22;8134;49.552;7.632;2023-08-30T10:09:32;18.10;99.90
16060;DHT22;8134;49.552;7.632;2023-08-30T10:11:58;18.10;99.90
16060;DHT22;8134;49.552;7.632;2023-08-30T10:14:23;18.20;99.90
16060;DHT22;8134;49.552;7.632;2023-08-30T10:16:49;18.20;99.90
16060;DHT22;8134;49.552;7.632;2023-08-30T10:19:15;18.30;99.90
16060;DHT22;8134;49.552;7.632;2023-08-30T10:21:44;18.30;99.90
16060;DHT22;8134;49.552;7.632;2023-08-30T10:24:11;18.40;99.90
16060;DHT22;8134;49.552;7.632;2023-08-30T10:26:37;18.40;99.90
16060;DHT22;8134;49.552;7.632;2023-08-30T10:29:04;18.50;99.90
16060;DHT22;8134;49.552;7.632;2023-08-30T10:31:30;18.50;99.90
16060;DHT22;8134;49.552;7.632;2023-08-30T10:33:56;18.60;99.90
16060;DHT22;8134;49.552;7.632;2023-08-30T10:36:26;18.60;99.90
16060;DHT22;8134;49.552;7.632;2023-08-30T10:38:54;18.60;99.90
16060;DHT22;8134;49.552;7.632;2023-08-30T10:41:21;18.70;99.90
16060;DHT22;8134;49.552;7.632;2023-08-30T10:43:51;18.80;99.90
16060;DHT22;8134;49.552;7.632;2023-08-30T10:46:17;18.90;99.90
16060;DHT22;8134;49.552;7.632;2023-08-30T10:48:53;19.00;99.90
16060;DHT22;8134;49.552;7.632;2023-08-30T10:51:20;19.10;99.90
16060;DHT22;8134;49.552;7.632;2023-08-30T10:53:58;19.10;99.90
16060;DHT22;8134;49.552;7.632;2023-08-30T10:56:28;19.20;99.90
16060;DHT22;8134;49.552;7.632;2023-08-30T10:58:54;19.20;99.90
16060;DHT22;8134;49.552;7.632;2023-08-30T11:01:19;19.10;99.90
16060;DHT22;8134;49.552;7.632;2023-08-30T11:03:45;19.10;99.90
16060;DHT22;8134;49.552;7.632;2023-08-30T11:06:14;19.10;99.90
16060;DHT22;8134;49.552;7.632;2023-08-30T11:08:39;19.00;99.90
16060;DHT22;8134;49.552;7.632;2023-08-30T11:11:06;18.90;99.90
16060;DHT22;8134;49.552;7.632;2023-08-30T11:13:34;18.90;99.90
16060;DHT22;8134;49.552;7.632;2023-08-30T11:16:03;18.90;99.90
16060;DHT22;8134;49.552;7.632;2023-08-30T11:18:29;19.00;99.90
16060;DHT22;8134;49.552;7.632;2023-08-30T11:21:01;19.00;99.90
16060;DHT22;8134;49.552;7.632;2023-08-30T11:23:27;19.10;99.90
16060;DHT22;8134;49.552;7.632;2023-08-30T11:25:53;19.20;99.90
16060;DHT22;8134;49.552;7.632;2023-08-30T11:28:22;19.20;99.90
16060;DHT22;8134;49.552;7.632;2023-08-30T11:30:47;19.30;99.90
16060;DHT22;8134;49.552;7.632;2023-08-30T11:33:16;19.30;99.90
16060;DHT22;8134;49.552;7.632;2023-08-30T11:35:41;19.40;99.90
16060;DHT22;8134;49.552;7.632;2023-08-30T11:38:07;19.40;99.90
16060;DHT22;8134;49.552;7.632;2023-08-30T11:40:32;19.50;99.90
16060;DHT22;8134;49.552;7.632;2023-08-30T11:42:58;19.50;99.90
16060;DHT22;8134;49.552;7.632;2023-08-30T11:45:23;19.60;99.90
16060;DHT22;8134;49.552;7.632;2023-08-30T11:47:49;19.70;99.90
16060;DHT22;8134;49.552;7.632;2023-08-30T11:50:14;19.80;99.90
16060;DHT22;8134;49.552;7.632;2023-08-30T11:52:40;19.90;99.90
16060;DHT22;8134;49.552;7.632;2023-08-30T11:55:06;19.80;99.90
16060;DHT22;8134;49.552;7.632;2023-08-30T11:57:38;19.80;99.90
16060;DHT22;8134;49.552;7.632;2023-08-30T12:00:22;19.80;99.90
16060;DHT22;8134;49.552;7.632;2023-08-30T12:02:47;19.80;99.90
16060;DHT22;8134;49.552;7.632;2023-08-30T12:05:13;19.80;99.90
16060;DHT22;8134;49.552;7.632;2023-08-30T12:07:39;19.80;99.90
16060;DHT22;8134;49.552;7.632;2023-08-30T12:10:06;19.80;99.90
16060;DHT22;8134;49.552;7.632;2023-08-30T12:12:31;19.80;99.90
16060;DHT22;8134;49.552;7.632;2023-08-30T12:14:57;19.90;99.90
16060;DHT22;8134;49.552;7.632;2023-08-30T12:17:23;20.10;99.90
16060;DHT22;8134;49.552;7.632;2023-08-30T12:19:58;20.20;99.90
16060;DHT22;8134;49.552;7.632;2023-08-30T12:22:23;20.30;99.90
16060;DHT22;8134;49.552;7.632;2023-08-30T12:24:49;20.40;99.90
16060;DHT22;8134;49.552;7.632;2023-08-30T12:27:15;20.50;99.90
16060;DHT22;8134;49.552;7.632;2023-08-30T13:02:59;19.30;99.90
16060;DHT22;8134;49.552;7.632;2023-08-30T13:05:24;19.30;99.90
16060;DHT22;8134;49.552;7.632;2023-08-30T13:07:50;19.40;99.90
16060;DHT22;8134;49.552;7.632;2023-08-30T13:10:16;19.50;99.90
16060;DHT22;8134;49.552;7.632;2023-08-30T13:12:42;19.70;99.90
16060;DHT22;8134;49.552;7.632;2023-08-30T13:15:08;20.00;99.90
16060;DHT22;8134;49.552;7.632;2023-08-30T13:17:33;20.30;99.90
16060;DHT22;8134;49.552;7.632;2023-08-30T13:19:59;20.60;99.90
16060;DHT22;8134;49.552;7.632;2023-08-30T13:22:25;20.80;99.90
16060;DHT22;8134;49.552;7.632;2023-08-30T13:24:51;20.90;99.90
16060;DHT22;8134;49.552;7.632;2023-08-30T13:27:17;21.10;99.90
16060;DHT22;8134;49.552;7.632;2023-08-30T13:29:43;21.30;99.90
16060;DHT22;8134;49.552;7.632;2023-08-30T13:32:08;21.50;99.90
16060;DHT22;8134;49.552;7.632;2023-08-30T13:34:34;21.50;99.90
16060;DHT22;8134;49.552;7.632;2023-08-30T13:36:59;21.60;99.90
16060;DHT22;8134;49.552;7.632;2023-08-30T13:39:25;21.80;99.90
16060;DHT22;8134;49.552;7.632;2023-08-30T13:41:50;22.00;99.90
16060;DHT22;8134;49.552;7.632;2023-08-30T13:44:16;22.10;99.90
16060;DHT22;8134;49.552;7.632;2023-08-30T13:46:42;22.20;99.90
16060;DHT22;8134;49.552;7.632;2023-08-30T13:49:08;22.20;99.40
16060;DHT22;8134;49.552;7.632;2023-08-30T13:51:34;22.20;98.80
16060;DHT22;8134;49.552;7.632;2023-08-30T13:53:59;22.30;99.70
16060;DHT22;8134;49.552;7.632;2023-08-30T13:56:25;22.40;98.50
16060;DHT22;8134;49.552;7.632;2023-08-30T13:58:50;22.50;99.90
16060;DHT22;8134;49.552;7.632;2023-08-30T14:01:16;22.50;98.00
16060;DHT22;8134;49.552;7.632;2023-08-30T14:03:42;22.50;98.10
16060;DHT22;8134;49.552;7.632;2023-08-30T14:06:07;22.50;97.20
16060;DHT22;8134;49.552;7.632;2023-08-30T14:08:33;22.50;99.00
16060;DHT22;8134;49.552;7.632;2023-08-30T14:10:59;22.40;97.90
16060;DHT22;8134;49.552;7.632;2023-08-30T14:13:24;22.40;98.00
16060;DHT22;8134;49.552;7.632;2023-08-30T14:15:50;22.30;97.60
16060;DHT22;8134;49.552;7.632;2023-08-30T14:18:15;22.10;98.20
16060;DHT22;8134;49.552;7.632;2023-08-30T14:20:42;22.00;98.30
16060;DHT22;8134;49.552;7.632;2023-08-30T14:23:07;21.80;98.10
16060;DHT22;8134;49.552;7.632;2023-08-30T14:25:33;21.60;97.60
16060;DHT22;8134;49.552;7.632;2023-08-30T14:27:59;21.50;97.80
16060;DHT22;8134;49.552;7.632;2023-08-30T14:30:25;21.50;98.80
16060;DHT22;8134;49.552;7.632;2023-08-30T14:32:50;21.40;99.00
16060;DHT22;8134;49.552;7.632;2023-08-30T14:35:16;21.40;99.40
16060;DHT22;8134;49.552;7.632;2023-08-30T14:37:41;21.40;99.80
16060;DHT22;8134;49.552;7.632;2023-08-30T14:40:07;21.40;99.90
16060;DHT22;8134;49.552;7.632;2023-08-30T14:42:33;21.40;99.90
16060;DHT22;8134;49.552;7.632;2023-08-30T14:44:58;21.30;99.70
16060;DHT22;8134;49.552;7.632;2023-08-30T14:47:24;21.30;99.90
16060;DHT22;8134;49.552;7.632;2023-08-30T14:49:50;21.20;99.90
16060;DHT22;8134;49.552;7.632;2023-08-30T14:52:15;21.20;99.90
16060;DHT22;8134;49.552;7.632;2023-08-30T14:54:44;21.20;99.90
16060;DHT22;8134;49.552;7.632;2023-08-30T14:57:10;21.20;99.90
16060;DHT22;8134;49.552;7.632;2023-08-30T14:59:35;21.20;99.90
16060;DHT22;8134;49.552;7.632;2023-08-30T15:02:01;21.20;99.90
16060;DHT22;8134;49.552;7.632;2023-08-30T15:04:26;21.30;99.90
16060;DHT22;8134;49.552;7.632;2023-08-30T15:06:51;21.30;99.90
16060;DHT22;8134;49.552;7.632;2023-08-30T15:09:17;21.20;99.90
16060;DHT22;8134;49.552;7.632;2023-08-30T15:11:43;21.20;99.90
16060;DHT22;8134;49.552;7.632;2023-08-30T15:14:09;21.10;99.90
16060;DHT22;8134;49.552;7.632;2023-08-30T15:16:34;21.00;99.90
16060;DHT22;8134;49.552;7.632;2023-08-30T15:19:00;21.00;99.90
16060;DHT22;8134;49.552;7.632;2023-08-30T15:21:26;21.00;99.90
16060;DHT22;8134;49.552;7.632;2023-08-30T15:23:51;21.00;99.90
16060;DHT22;8134;49.552;7.632;2023-08-30T15:26:17;21.00;99.90
16060;DHT22;8134;49.552;7.632;2023-08-30T15:28:46;20.90;99.90
16060;DHT22;8134;49.552;7.632;2023-08-30T15:31:12;20.90;99.90
16060;DHT22;8134;49.552;7.632;2023-08-30T15:33:38;20.90;99.90
16060;DHT22;8134;49.552;7.632;2023-08-30T15:36:03;20.90;99.90
16060;DHT22;8134;49.552;7.632;2023-08-30T15:38:29;20.80;99.90
16060;DHT22;8134;49.552;7.632;2023-08-30T15:40:54;20.80;99.90
16060;DHT22;8134;49.552;7.632;2023-08-30T15:43:23;20.70;99.90
16060;DHT22;8134;49.552;7.632;2023-08-30T15:45:48;20.70;99.90
16060;DHT22;8134;49.552;7.632;2023-08-30T15:48:15;20.60;99.90
16060;DHT22;8134;49.552;7.632;2023-08-30T15:50:41;20.50;99.90
16060;DHT22;8134;49.552;7.632;2023-08-30T15:53:07;20.50;99.90
16060;DHT22;8134;49.552;7.632;2023-08-30T15:55:33;20.50;99.90
16060;DHT22;8134;49.552;7.632;2023-08-30T15:57:58;20.50;99.90
16060;DHT22;8134;49.552;7.632;2023-08-30T16:00:24;20.60;99.90
16060;DHT22;8134;49.552;7.632;2023-08-30T16:02:50;20.60;99.90
16060;DHT22;8134;49.552;7.632;2023-08-30T16:05:21;20.60;99.90
16060;DHT22;8134;49.552;7.632;2023-08-30T16:07:47;20.60;99.90
16060;DHT22;8134;49.552;7.632;2023-08-30T16:10:12;20.70;99.90
16060;DHT22;8134;49.552;7.632;2023-08-30T16:12:38;20.80;99.90
16060;DHT22;8134;49.552;7.632;2023-08-30T16:15:03;20.80;99.90
16060;DHT22;8134;49.552;7.632;2023-08-30T16:17:29;20.70;99.90
16060;DHT22;8134;49.552;7.632;2023-08-30T16:19:54;20.60;99.90
16060;DHT22;8134;49.552;7.632;2023-08-30T16:22:22;20.50;99.90
16060;DHT22;8134;49.552;7.632;2023-08-30T16:24:47;20.40;99.90